createdAt,value
2022-12-09T00:00:08.472Z,6.78
2022-12-09T00:02:36.345Z,2.63
2022-12-09T00:05:04.293Z,3.90
2022-12-09T00:07:31.481Z,2.03
2022-12-09T00:09:58.631Z,8.38
2022-12-09T00:12:25.860Z,3.08
2022-12-09T00:14:53.019Z,1.63
2022-12-09T00:17:20.414Z,1.83
2022-12-09T00:19:47.900Z,5.35
2022-12-09T00:22:15.257Z,6.40
2022-12-09T00:24:42.611Z,3.80
2022-12-09T00:27:09.712Z,4.93
2022-12-09T00:29:36.886Z,2.40
2022-12-09T00:32:04.416Z,6.10
2022-12-09T00:34:31.483Z,4.97
2022-12-09T00:36:58.608Z,2.55
2022-12-09T00:39:26.292Z,3.17
2022-12-09T00:41:53.479Z,4.43
2022-12-09T00:44:20.642Z,3.10
2022-12-09T00:46:47.756Z,1.23
2022-12-09T00:49:14.931Z,3.47
2022-12-09T00:51:42.302Z,5.75
2022-12-09T00:54:09.654Z,1.90
2022-12-09T00:56:36.784Z,4.28
2022-12-09T00:59:04.126Z,4.93
2022-12-09T01:01:32.247Z,3.40
2022-12-09T01:03:59.764Z,1.92
2022-12-09T01:06:27.602Z,2.47
2022-12-09T01:08:55.115Z,4.68
2022-12-09T01:11:25.860Z,4.95
2022-12-09T01:13:54.177Z,5.97
2022-12-09T01:16:25.277Z,3.30
2022-12-09T01:18:54.073Z,6.45
2022-12-09T01:21:21.574Z,2.22
2022-12-09T01:23:48.797Z,4.97
2022-12-09T01:26:16.026Z,6.28
2022-12-09T01:28:43.435Z,7.45
2022-12-09T01:31:10.874Z,2.30
2022-12-09T01:33:38.343Z,4.68
2022-12-09T01:36:08.492Z,3.47
2022-12-09T01:38:36.367Z,2.60
2022-12-09T01:41:03.884Z,4.22
2022-12-09T01:43:31.127Z,4.70
2022-12-09T01:45:58.307Z,4.35
2022-12-09T01:48:32.292Z,3.42
2022-12-09T01:51:08.899Z,2.55
2022-12-09T01:53:39.195Z,1.85
2022-12-09T01:56:12.021Z,2.90
2022-12-09T01:58:39.164Z,3.67
2022-12-09T02:01:06.606Z,2.17
2022-12-09T02:03:33.799Z,2.33
2022-12-09T02:06:01.335Z,2.38
2022-12-09T02:08:28.392Z,2.53
2022-12-09T02:11:24.452Z,1.60
2022-12-09T02:14:19.687Z,4.72
2022-12-09T02:17:08.009Z,2.08
2022-12-09T02:19:43.899Z,2.08
2022-12-09T02:22:14.987Z,3.55
2022-12-09T02:24:53.830Z,2.78
2022-12-09T02:27:30.574Z,2.85
2022-12-09T02:30:24.577Z,5.25
2022-12-09T02:33:01.888Z,1.40
2022-12-09T02:35:52.677Z,3.92
2022-12-09T02:38:32.466Z,1.90
2022-12-09T02:41:02.131Z,2.05
2022-12-09T02:43:35.768Z,2.15
2022-12-09T02:46:04.794Z,2.53
2022-12-09T02:48:40.372Z,2.80
2022-12-09T02:51:11.143Z,2.15
2022-12-09T02:53:40.182Z,3.05
2022-12-09T02:56:09.583Z,4.15
2022-12-09T02:58:36.768Z,2.83
2022-12-09T03:01:04.706Z,3.53
2022-12-09T03:03:34.913Z,1.17
2022-12-09T03:06:06.773Z,1.75
2022-12-09T03:09:04.964Z,3.45
2022-12-09T03:11:33.959Z,3.92
2022-12-09T03:14:19.658Z,3.35
2022-12-09T03:16:49.867Z,1.80
2022-12-09T03:19:22.438Z,2.95
2022-12-09T03:21:53.508Z,1.92
2022-12-09T03:24:39.568Z,5.85
2022-12-09T03:27:11.619Z,2.30
2022-12-09T03:29:42.695Z,2.45
2022-12-09T03:32:11.810Z,2.65
2022-12-09T03:34:42.480Z,2.80
2022-12-09T03:37:11.609Z,3.67
2022-12-09T03:39:40.287Z,1.80
2022-12-09T03:42:23.317Z,4.20
2022-12-09T03:45:01.441Z,1.23
2022-12-09T03:47:28.863Z,2.30
2022-12-09T03:49:56.270Z,1.90
2022-12-09T03:52:30.677Z,4.63
2022-12-09T03:55:14.049Z,2.50
2022-12-09T03:57:44.129Z,1.60
2022-12-09T04:00:13.317Z,2.08
2022-12-09T04:02:41.412Z,1.65
2022-12-09T04:05:09.486Z,2.38
2022-12-09T04:07:37.151Z,3.00
2022-12-09T04:10:06.235Z,1.65
2022-12-09T04:12:33.941Z,1.65
2022-12-09T04:15:01.017Z,3.55
2022-12-09T04:17:28.137Z,0.88
2022-12-09T04:19:55.246Z,1.52
2022-12-09T04:22:22.511Z,3.90
2022-12-09T04:24:49.744Z,1.92
2022-12-09T04:27:17.025Z,3.53
2022-12-09T04:29:44.145Z,1.42
2022-12-09T04:32:11.401Z,5.85
2022-12-09T04:34:38.805Z,4.22
2022-12-09T04:37:06.056Z,0.82
2022-12-09T04:39:33.146Z,1.23
2022-12-09T04:42:00.505Z,1.95
2022-12-09T04:44:27.918Z,2.08
2022-12-09T04:46:55.104Z,3.28
2022-12-09T04:49:22.312Z,4.97
2022-12-09T04:51:49.282Z,1.73
2022-12-09T04:54:16.734Z,2.50
2022-12-09T04:56:44.583Z,1.20
2022-12-09T04:59:11.837Z,4.85
2022-12-09T05:01:39.286Z,2.53
2022-12-09T05:04:06.701Z,1.75
2022-12-09T05:06:34.600Z,1.92
2022-12-09T05:09:01.992Z,2.90
2022-12-09T05:11:29.633Z,6.18
2022-12-09T05:13:57.252Z,1.92
2022-12-09T05:16:24.387Z,2.35
2022-12-09T05:18:52.422Z,2.72
2022-12-09T05:21:21.654Z,2.63
2022-12-09T05:23:49.512Z,2.28
2022-12-09T05:26:19.989Z,3.65
2022-12-09T05:28:48.104Z,0.63
2022-12-09T05:31:18.398Z,3.20
2022-12-09T05:33:46.853Z,1.15
2022-12-09T05:36:17.974Z,0.60
2022-12-09T05:38:45.770Z,1.55
2022-12-09T05:41:13.619Z,2.22
2022-12-09T05:43:41.061Z,1.85
2022-12-09T05:46:09.307Z,2.95
2022-12-09T05:48:37.509Z,1.98
2022-12-09T05:51:11.751Z,3.13
2022-12-09T05:53:39.134Z,0.65
2022-12-09T05:56:06.816Z,2.67
2022-12-09T05:58:34.906Z,4.15
2022-12-09T06:01:07.430Z,2.25
2022-12-09T06:03:36.434Z,5.93
2022-12-09T06:06:12.967Z,1.10
2022-12-09T06:08:42.235Z,1.30
2022-12-09T06:11:21.973Z,2.83
2022-12-09T06:13:50.642Z,3.42
2022-12-09T06:16:20.585Z,1.80
2022-12-09T06:18:49.429Z,1.00
2022-12-09T06:21:18.423Z,2.35
2022-12-09T06:23:46.343Z,2.15
2022-12-09T06:26:21.513Z,2.08
2022-12-09T06:28:49.522Z,3.30
2022-12-09T06:31:17.265Z,3.03
2022-12-09T06:34:00.472Z,0.77
2022-12-09T06:36:30.672Z,1.60
2022-12-09T06:39:09.212Z,2.72
2022-12-09T06:41:38.703Z,5.65
2022-12-09T06:44:06.141Z,1.02
2022-12-09T06:46:33.680Z,2.60
2022-12-09T06:49:01.025Z,2.75
2022-12-09T06:51:28.254Z,2.30
2022-12-09T06:53:56.005Z,1.80
2022-12-09T06:56:24.012Z,1.10
2022-12-09T06:58:51.351Z,4.20
2022-12-09T07:01:24.097Z,3.50
2022-12-09T07:03:54.438Z,8.13
2022-12-09T07:06:32.723Z,3.38
2022-12-09T07:09:08.090Z,4.93
2022-12-09T07:11:35.930Z,4.07
2022-12-09T07:14:03.631Z,2.63
2022-12-09T07:16:31.245Z,1.48
2022-12-09T07:18:59.351Z,7.50
2022-12-09T07:21:27.009Z,3.40
2022-12-09T07:23:54.782Z,3.10
2022-12-09T07:26:22.321Z,1.88
2022-12-09T07:28:50.751Z,3.33
2022-12-09T07:31:24.343Z,1.63
2022-12-09T07:33:52.788Z,1.58
2022-12-09T07:36:22.179Z,1.13
2022-12-09T07:38:54.537Z,1.08
2022-12-09T07:41:21.879Z,1.70
2022-12-09T07:43:49.774Z,2.28
2022-12-09T07:46:19.207Z,3.90
2022-12-09T07:48:49.390Z,1.30
2022-12-09T07:51:17.851Z,2.75
2022-12-09T07:53:45.321Z,1.92
2022-12-09T07:56:15.086Z,2.45
2022-12-09T07:58:43.906Z,1.95
2022-12-09T08:01:13.500Z,1.10
2022-12-09T08:03:42.617Z,3.33
2022-12-09T08:06:14.334Z,5.88
2022-12-09T08:08:43.128Z,3.88
2022-12-09T08:11:15.404Z,4.82
2022-12-09T08:13:43.103Z,7.30
2022-12-09T08:16:14.161Z,6.60
2022-12-09T08:18:42.919Z,2.28
2022-12-09T08:21:13.286Z,1.33
2022-12-09T08:23:41.098Z,3.00
2022-12-09T08:26:10.508Z,2.50
2022-12-09T08:28:38.748Z,2.90
2022-12-09T08:31:11.796Z,4.30
2022-12-09T08:33:40.039Z,2.55
2022-12-09T08:36:17.331Z,5.57
2022-12-09T08:38:45.531Z,4.75
2022-12-09T08:41:20.784Z,6.47
2022-12-09T08:43:48.431Z,5.88
2022-12-09T08:46:16.267Z,4.07
2022-12-09T08:48:43.899Z,2.10
2022-12-09T08:51:12.346Z,3.20
2022-12-09T08:53:40.055Z,1.98
2022-12-09T08:56:12.717Z,3.10
2022-12-09T08:58:41.131Z,3.05
2022-12-09T09:01:15.701Z,2.20
2022-12-09T09:03:43.755Z,1.92
2022-12-09T09:06:12.292Z,3.38
2022-12-09T09:08:40.948Z,4.55
2022-12-09T09:11:19.986Z,4.60
2022-12-09T09:13:51.762Z,1.83
2022-12-09T09:16:21.762Z,1.55
2022-12-09T09:18:49.915Z,2.90
2022-12-09T09:21:20.364Z,2.90
2022-12-09T09:23:48.793Z,1.55
2022-12-09T09:26:19.335Z,2.20
2022-12-09T09:28:47.474Z,3.80
2022-12-09T09:31:18.310Z,3.35
2022-12-09T09:33:46.950Z,3.10
2022-12-09T09:36:21.074Z,2.85
2022-12-09T09:38:49.245Z,3.30
2022-12-09T09:41:27.911Z,2.50
2022-12-09T09:43:56.821Z,1.80
2022-12-09T09:46:42.609Z,5.50
2022-12-09T09:49:22.288Z,8.07
2022-12-09T09:51:50.606Z,5.65
2022-12-09T09:54:18.103Z,3.08
2022-12-09T09:57:11.986Z,2.42
2022-12-09T09:59:54.080Z,2.75
2022-12-09T10:02:30.946Z,2.03
2022-12-09T10:05:04.524Z,1.98
2022-12-09T10:07:40.706Z,1.73
2022-12-09T10:10:18.052Z,2.22
2022-12-09T10:13:17.583Z,2.63
2022-12-09T10:16:17.011Z,5.03
2022-12-09T10:19:15.619Z,1.27
2022-12-09T10:21:45.406Z,2.83
2022-12-09T10:24:21.174Z,3.30
2022-12-09T10:27:00.191Z,1.30
2022-12-09T10:29:55.017Z,3.00
2022-12-09T10:32:26.655Z,1.40
2022-12-09T10:34:54.208Z,1.90
2022-12-09T10:37:32.256Z,1.80
2022-12-09T10:40:14.768Z,4.22
2022-12-09T10:43:07.458Z,5.72
2022-12-09T10:46:15.666Z,2.80
2022-12-09T10:48:49.701Z,3.05
2022-12-09T10:51:23.879Z,2.88
2022-12-09T10:53:56.247Z,1.08
2022-12-09T10:56:33.094Z,5.68
2022-12-09T10:59:27.977Z,1.13
2022-12-09T11:01:58.838Z,2.53
2022-12-09T11:04:37.515Z,4.30
2022-12-09T11:07:11.027Z,6.18
2022-12-09T11:09:54.847Z,3.65
2022-12-09T11:12:30.893Z,4.13
2022-12-09T11:15:21.985Z,1.23
2022-12-09T11:18:06.918Z,0.88
2022-12-09T11:20:36.510Z,1.85
2022-12-09T11:23:13.311Z,2.58
2022-12-09T11:26:01.790Z,2.95
2022-12-09T11:28:31.962Z,7.82
2022-12-09T11:33:55.506Z,1.80
2022-12-09T11:36:29.929Z,5.25
2022-12-09T11:39:19.836Z,5.93
2022-12-09T11:42:12.926Z,3.47
2022-12-09T11:44:52.765Z,9.77
2022-12-09T11:48:22.618Z,9.65
2022-12-09T11:50:32.721Z,4.40
2022-12-09T11:53:32.578Z,1.58
2022-12-09T11:56:25.835Z,4.40
2022-12-09T11:59:07.778Z,3.20
2022-12-09T12:01:47.324Z,2.65
2022-12-09T12:04:23.142Z,1.98
2022-12-09T12:07:08.154Z,1.75
2022-12-09T12:09:42.276Z,2.57
2022-12-09T12:12:32.972Z,1.67
2022-12-09T12:15:10.943Z,1.20
2022-12-09T12:17:43.955Z,1.65
2022-12-09T12:20:15.120Z,6.45
2022-12-09T12:23:06.430Z,4.05
2022-12-09T12:25:52.370Z,6.07
2022-12-09T12:28:51.803Z,1.88
2022-12-09T12:31:33.316Z,2.72
2022-12-09T12:34:35.718Z,3.08
2022-12-09T12:37:33.149Z,3.03
2022-12-09T12:40:15.487Z,1.85
2022-12-09T12:43:17.734Z,3.35
2022-12-09T12:46:19.266Z,2.80
2022-12-09T12:49:07.341Z,2.25
2022-12-09T12:51:58.940Z,3.75
2022-12-09T12:57:42.974Z,1.58
2022-12-09T13:00:16.967Z,1.88
2022-12-09T13:03:01.914Z,1.23
2022-12-09T13:05:38.571Z,3.20
2022-12-09T13:08:27.992Z,5.40
2022-12-09T13:10:58.800Z,1.33
2022-12-09T13:13:34.975Z,1.20
2022-12-09T13:16:16.404Z,1.23
2022-12-09T13:21:12.898Z,2.72
2022-12-09T13:24:03.012Z,4.97
2022-12-09T13:26:41.808Z,3.55
2022-12-09T13:29:26.015Z,6.65
2022-12-09T13:31:56.117Z,11.18
2022-12-09T13:34:32.307Z,5.20
2022-12-09T13:36:59.331Z,9.52
2022-12-09T13:39:42.263Z,9.85
2022-12-09T13:42:54.314Z,7.15
2022-12-09T13:45:25.858Z,2.58
2022-12-09T13:47:54.454Z,3.85
2022-12-09T13:50:32.357Z,2.95
2022-12-09T13:53:03.559Z,2.22
2022-12-09T13:55:38.553Z,3.40
2022-12-09T13:58:35.981Z,3.97
2022-12-09T14:01:11.999Z,3.35
2022-12-09T14:04:00.936Z,1.42
2022-12-09T14:06:47.933Z,1.60
2022-12-09T14:09:20.984Z,1.30
2022-12-09T14:11:53.451Z,1.38
2022-12-09T14:14:23.680Z,1.58
2022-12-09T14:16:58.333Z,1.17
2022-12-09T14:19:25.547Z,2.00
2022-12-09T14:22:18.556Z,1.92
2022-12-09T14:24:52.008Z,1.52
2022-12-09T14:27:21.078Z,1.00
2022-12-09T14:29:55.387Z,3.20
2022-12-09T14:32:35.227Z,1.40
2022-12-09T14:35:11.712Z,2.20
2022-12-09T14:37:56.606Z,2.15
2022-12-09T14:40:49.394Z,1.88
2022-12-09T14:43:48.597Z,2.67
2022-12-09T14:46:35.738Z,0.83
2022-12-09T14:49:13.209Z,3.17
2022-12-09T14:51:51.235Z,2.85
2022-12-09T14:54:46.007Z,1.63
2022-12-09T14:57:25.433Z,5.18
2022-12-09T14:59:54.824Z,6.22
2022-12-09T15:02:26.391Z,3.15
2022-12-09T15:04:54.484Z,3.10
2022-12-09T15:07:27.824Z,2.70
2022-12-09T15:10:04.267Z,1.52
2022-12-09T15:12:37.849Z,3.45
2022-12-09T15:15:15.886Z,6.53
2022-12-09T15:17:55.137Z,14.32
2022-12-09T15:20:30.034Z,8.43
2022-12-09T15:23:03.661Z,4.68
2022-12-09T15:25:31.839Z,6.68
2022-12-09T15:28:02.345Z,5.68
2022-12-09T15:30:38.807Z,3.53
2022-12-09T15:33:17.633Z,5.65
2022-12-09T15:35:50.959Z,3.60
2022-12-09T15:38:18.262Z,3.15
2022-12-09T15:41:07.223Z,3.15
2022-12-09T15:43:36.566Z,3.40
2022-12-09T15:46:04.423Z,4.65
2022-12-09T15:48:39.515Z,10.77
2022-12-09T15:51:11.955Z,5.65
2022-12-09T15:54:01.651Z,6.07
2022-12-09T15:56:35.900Z,2.22
2022-12-09T15:59:29.890Z,2.05
2022-12-09T16:01:59.285Z,3.13
2022-12-09T16:04:42.397Z,4.05
2022-12-09T16:07:13.095Z,3.05
2022-12-09T16:09:40.531Z,2.63
2022-12-09T16:12:28.274Z,5.85
2022-12-09T16:14:55.676Z,11.57
2022-12-09T16:17:31.438Z,8.68
2022-12-09T16:19:58.915Z,8.60
2022-12-09T16:22:29.465Z,7.63
2022-12-09T16:25:14.482Z,14.85
2022-12-09T16:27:48.731Z,16.60
2022-12-09T16:30:21.906Z,12.98
2022-12-09T16:32:56.222Z,7.57
2022-12-09T16:35:25.260Z,5.93
2022-12-09T16:37:58.100Z,3.90
2022-12-09T16:40:25.113Z,3.65
2022-12-09T16:42:54.175Z,4.53
2022-12-09T16:45:32.425Z,3.95
2022-12-09T16:47:59.900Z,4.40
2022-12-09T16:50:34.255Z,5.22
2022-12-09T16:53:02.581Z,7.22
2022-12-09T16:55:31.496Z,4.45
2022-12-09T16:58:00.255Z,5.20
2022-12-09T17:00:27.339Z,3.92
2022-12-09T17:03:02.977Z,4.47
2022-12-09T17:05:29.971Z,3.63
2022-12-09T17:07:57.062Z,3.35
2022-12-09T17:10:24.495Z,4.82
2022-12-09T17:12:51.720Z,4.65
2022-12-09T17:15:20.693Z,4.15
2022-12-09T17:17:49.161Z,3.70
2022-12-09T17:20:17.615Z,9.85
2022-12-09T17:22:44.893Z,2.80
2022-12-09T17:25:13.672Z,4.10
2022-12-09T17:27:40.863Z,3.63
2022-12-09T17:30:08.634Z,3.83
2022-12-09T17:32:36.074Z,7.50
2022-12-09T17:35:07.449Z,5.47
2022-12-09T17:37:37.982Z,3.58
2022-12-09T17:40:05.507Z,5.72
2022-12-09T17:42:33.438Z,3.40
2022-12-09T17:45:00.739Z,5.07
2022-12-09T17:47:28.709Z,4.93
2022-12-09T17:49:55.816Z,6.63
2022-12-09T17:52:23.192Z,13.10
2022-12-09T17:54:50.215Z,5.03
2022-12-09T17:57:18.204Z,9.20
2022-12-09T17:59:45.631Z,19.95
2022-12-09T18:02:12.693Z,9.18
2022-12-09T18:04:39.985Z,8.45
2022-12-09T18:07:07.030Z,9.38
2022-12-09T18:09:34.354Z,7.78
2022-12-09T18:12:01.601Z,5.88
2022-12-09T18:14:29.101Z,5.28
2022-12-09T18:17:04.105Z,4.18
2022-12-09T18:19:31.281Z,3.50
2022-12-09T18:22:01.779Z,4.88
2022-12-09T18:24:32.235Z,6.63
2022-12-09T18:26:59.318Z,4.97
2022-12-09T18:29:26.497Z,6.97
2022-12-09T18:31:57.252Z,7.45
2022-12-09T18:34:25.503Z,7.10
2022-12-09T18:36:53.132Z,5.75
2022-12-09T18:39:20.407Z,8.35
2022-12-09T18:41:47.843Z,7.65
2022-12-09T18:44:16.573Z,9.85
2022-12-09T18:46:46.948Z,7.28
2022-12-09T18:49:18.114Z,9.23
2022-12-09T18:51:47.009Z,8.75
2022-12-09T18:54:17.394Z,10.13
2022-12-09T18:56:44.895Z,13.30
2022-12-09T18:59:12.468Z,10.68
2022-12-09T19:01:42.480Z,10.20
2022-12-09T19:04:24.991Z,8.18
2022-12-09T19:06:54.590Z,6.00
2022-12-09T19:09:28.631Z,10.10
2022-12-09T19:11:56.076Z,8.05
2022-12-09T19:14:23.895Z,5.88
2022-12-09T19:16:52.346Z,6.22
2022-12-09T19:19:22.062Z,7.43
2022-12-09T19:21:49.751Z,5.80
2022-12-09T19:24:25.820Z,9.65
2022-12-09T19:26:55.017Z,10.45
2022-12-09T19:29:24.682Z,15.85
2022-12-09T19:31:53.119Z,18.70
2022-12-09T19:34:24.460Z,19.42
2022-12-09T19:39:21.530Z,9.25
2022-12-09T19:41:48.596Z,7.38
2022-12-09T19:44:37.184Z,6.97
2022-12-09T19:47:05.768Z,7.00
2022-12-09T19:49:33.021Z,5.82
2022-12-09T19:52:00.275Z,6.88
2022-12-09T19:54:29.825Z,6.05
2022-12-09T19:56:57.403Z,6.35
2022-12-09T19:59:26.005Z,8.07
2022-12-09T20:01:53.241Z,5.35
2022-12-09T20:07:09.173Z,6.22
2022-12-09T20:09:37.528Z,6.82
2022-12-09T20:12:05.007Z,4.90
2022-12-09T20:14:32.076Z,6.72
2022-12-09T20:16:59.339Z,5.85
2022-12-09T20:19:26.470Z,4.82
2022-12-09T20:21:53.849Z,6.35
2022-12-09T20:24:20.907Z,5.60
2022-12-09T20:26:48.023Z,3.63
2022-12-09T20:29:15.028Z,6.07
2022-12-09T20:31:42.788Z,7.03
2022-12-09T20:34:14.658Z,6.20
2022-12-09T20:36:43.558Z,4.57
2022-12-09T20:39:17.171Z,6.20
2022-12-09T20:41:45.251Z,5.28
2022-12-09T20:44:13.372Z,7.90
2022-12-09T20:46:44.524Z,9.10
2022-12-09T20:49:11.584Z,6.88
2022-12-09T20:51:40.891Z,14.38
2022-12-09T20:54:10.625Z,10.52
2022-12-09T20:56:37.994Z,17.23
2022-12-09T20:59:06.827Z,29.08
2022-12-09T21:01:35.844Z,22.52
2022-12-09T21:04:06.296Z,18.17
2022-12-09T21:06:36.258Z,18.15
2022-12-09T21:09:06.897Z,14.70
2022-12-09T21:11:34.161Z,11.32
2022-12-09T21:14:03.743Z,6.55
2022-12-09T21:16:39.273Z,8.38
2022-12-09T21:19:10.650Z,7.65
2022-12-09T21:24:07.971Z,8.60
2022-12-09T21:26:35.159Z,6.15
2022-12-09T21:29:02.305Z,8.10
2022-12-09T21:31:32.367Z,5.47
2022-12-09T21:34:04.197Z,5.40
2022-12-09T21:36:36.822Z,6.47
2022-12-09T21:39:05.840Z,7.35
2022-12-09T21:41:34.827Z,4.93
2022-12-09T21:44:02.298Z,4.60
2022-12-09T21:46:33.254Z,5.05
2022-12-09T21:49:03.924Z,4.53
2022-12-09T21:51:32.190Z,5.25
2022-12-09T21:53:59.969Z,5.30
2022-12-09T21:56:33.396Z,4.43
2022-12-09T21:59:01.378Z,5.32
2022-12-09T22:01:31.389Z,5.53
2022-12-09T22:04:00.148Z,5.68
2022-12-09T22:06:28.626Z,5.22
2022-12-09T22:08:57.579Z,5.22
2022-12-09T22:11:27.353Z,6.65
2022-12-09T22:13:57.183Z,5.07
2022-12-09T22:16:27.355Z,4.85
2022-12-09T22:18:56.983Z,5.78
2022-12-09T22:21:26.578Z,6.00
2022-12-09T22:23:59.184Z,5.45
2022-12-09T22:26:26.998Z,4.90
2022-12-09T22:28:54.555Z,2.97
2022-12-09T22:31:28.010Z,4.82
2022-12-09T22:33:59.177Z,2.55
2022-12-09T22:36:26.686Z,4.90
2022-12-09T22:38:54.596Z,2.75
2022-12-09T22:41:24.423Z,3.03
2022-12-09T22:43:53.345Z,2.83
2022-12-09T22:46:26.461Z,2.85
2022-12-09T22:48:54.595Z,3.47
2022-12-09T22:51:27.834Z,2.65
2022-12-09T22:53:56.796Z,2.97
2022-12-09T22:56:25.328Z,2.53
2022-12-09T22:58:52.849Z,3.47
2022-12-09T23:01:26.042Z,2.05
2022-12-09T23:03:55.214Z,11.15
2022-12-09T23:06:23.953Z,8.75
2022-12-09T23:08:51.253Z,3.38
2022-12-09T23:11:21.864Z,5.40
2022-12-09T23:13:49.484Z,3.78
2022-12-09T23:16:20.186Z,3.67
2022-12-09T23:18:48.388Z,2.85
2022-12-09T23:21:24.558Z,7.32
2022-12-09T23:23:56.685Z,5.70
2022-12-09T23:26:28.322Z,9.90
2022-12-09T23:28:57.320Z,7.85
2022-12-09T23:31:27.149Z,10.45
2022-12-09T23:33:54.659Z,4.00
2022-12-09T23:36:31.196Z,3.70
2022-12-09T23:38:59.277Z,2.30
2022-12-09T23:41:27.253Z,3.88
2022-12-09T23:43:54.895Z,1.90
2022-12-09T23:46:24.805Z,5.10
2022-12-09T23:48:53.954Z,3.47
2022-12-09T23:51:24.361Z,4.25
2022-12-09T23:53:54.092Z,2.20
2022-12-09T23:56:23.170Z,7.35
2022-12-09T23:58:59.106Z,7.22
